sensor_id;sensor_type;location;lat;lon;timestamp;P1;durP1;ratioP1;P2;durP2;ratioP2
23952;SDS011;12163;49.316;6.092;2023-06-26T00:01:30;6.68;;;4.40;;
23952;SDS011;12163;49.316;6.092;2023-06-26T00:03:58;6.77;;;4.37;;
23952;SDS011;12163;49.316;6.092;2023-06-26T00:06:25;5.43;;;4.38;;
23952;SDS011;12163;49.316;6.092;2023-06-26T00:08:53;8.63;;;4.82;;
23952;SDS011;12163;49.316;6.092;2023-06-26T00:11:20;7.65;;;4.72;;
23952;SDS011;12163;49.316;6.092;2023-06-26T00:13:47;7.97;;;4.72;;
23952;SDS011;12163;49.316;6.092;2023-06-26T00:16:14;6.05;;;4.63;;
23952;SDS011;12163;49.316;6.092;2023-06-26T00:18:41;6.43;;;4.38;;
23952;SDS011;12163;49.316;6.092;2023-06-26T00:21:07;9.40;;;4.70;;
23952;SDS011;12163;49.316;6.092;2023-06-26T00:23:34;10.95;;;4.60;;
23952;SDS011;12163;49.316;6.092;2023-06-26T00:26:05;7.25;;;4.88;;
23952;SDS011;12163;49.316;6.092;2023-06-26T00:28:32;10.37;;;4.83;;
23952;SDS011;12163;49.316;6.092;2023-06-26T00:30:59;7.43;;;4.70;;
23952;SDS011;12163;49.316;6.092;2023-06-26T00:33:26;8.20;;;4.85;;
23952;SDS011;12163;49.316;6.092;2023-06-26T00:35:52;6.30;;;4.85;;
23952;SDS011;12163;49.316;6.092;2023-06-26T00:38:19;5.57;;;4.40;;
23952;SDS011;12163;49.316;6.092;2023-06-26T00:40:46;8.82;;;4.82;;
23952;SDS011;12163;49.316;6.092;2023-06-26T00:43:12;7.95;;;4.72;;
23952;SDS011;12163;49.316;6.092;2023-06-26T00:45:39;5.57;;;4.40;;
23952;SDS011;12163;49.316;6.092;2023-06-26T00:48:10;5.78;;;4.70;;
23952;SDS011;12163;49.316;6.092;2023-06-26T00:50:38;5.97;;;4.60;;
23952;SDS011;12163;49.316;6.092;2023-06-26T00:53:05;6.32;;;4.70;;
23952;SDS011;12163;49.316;6.092;2023-06-26T00:55:32;6.38;;;5.00;;
23952;SDS011;12163;49.316;6.092;2023-06-26T00:57:59;8.93;;;5.10;;
23952;SDS011;12163;49.316;6.092;2023-06-26T01:00:26;6.53;;;5.10;;
23952;SDS011;12163;49.316;6.092;2023-06-26T01:02:53;7.35;;;4.80;;
23952;SDS011;12163;49.316;6.092;2023-06-26T01:05:20;5.93;;;4.80;;
23952;SDS011;12163;49.316;6.092;2023-06-26T01:07:49;9.32;;;5.35;;
23952;SDS011;12163;49.316;6.092;2023-06-26T01:10:18;6.03;;;4.68;;
23952;SDS011;12163;49.316;6.092;2023-06-26T01:12:45;8.48;;;4.88;;
23952;SDS011;12163;49.316;6.092;2023-06-26T01:15:12;7.05;;;4.75;;
23952;SDS011;12163;49.316;6.092;2023-06-26T01:17:39;7.70;;;5.05;;
23952;SDS011;12163;49.316;6.092;2023-06-26T01:20:07;9.17;;;5.13;;
23952;SDS011;12163;49.316;6.092;2023-06-26T01:25:44;8.02;;;5.22;;
23952;SDS011;12163;49.316;6.092;2023-06-26T01:28:14;9.50;;;5.00;;
23952;SDS011;12163;49.316;6.092;2023-06-26T01:30:43;7.93;;;4.97;;
23952;SDS011;12163;49.316;6.092;2023-06-26T01:33:11;7.00;;;5.10;;
23952;SDS011;12163;49.316;6.092;2023-06-26T01:35:39;8.23;;;4.97;;
23952;SDS011;12163;49.316;6.092;2023-06-26T01:38:13;7.85;;;5.13;;
23952;SDS011;12163;49.316;6.092;2023-06-26T01:40:41;7.78;;;5.07;;
23952;SDS011;12163;49.316;6.092;2023-06-26T01:43:22;6.93;;;4.90;;
23952;SDS011;12163;49.316;6.092;2023-06-26T01:45:54;8.38;;;4.80;;
23952;SDS011;12163;49.316;6.092;2023-06-26T01:48:28;8.75;;;5.10;;
23952;SDS011;12163;49.316;6.092;2023-06-26T01:50:59;6.18;;;5.00;;
23952;SDS011;12163;49.316;6.092;2023-06-26T01:53:27;10.65;;;4.88;;
23952;SDS011;12163;49.316;6.092;2023-06-26T01:56:12;8.07;;;4.93;;
23952;SDS011;12163;49.316;6.092;2023-06-26T01:58:43;6.60;;;4.90;;
23952;SDS011;12163;49.316;6.092;2023-06-26T02:01:11;9.75;;;5.15;;
23952;SDS011;12163;49.316;6.092;2023-06-26T02:03:38;7.35;;;5.40;;
23952;SDS011;12163;49.316;6.092;2023-06-26T02:06:05;8.07;;;5.35;;
23952;SDS011;12163;49.316;6.092;2023-06-26T02:08:32;9.02;;;5.32;;
23952;SDS011;12163;49.316;6.092;2023-06-26T02:10:58;7.43;;;5.43;;
23952;SDS011;12163;49.316;6.092;2023-06-26T02:13:25;9.25;;;5.50;;
23952;SDS011;12163;49.316;6.092;2023-06-26T02:15:51;7.57;;;6.32;;
23952;SDS011;12163;49.316;6.092;2023-06-26T02:18:18;10.70;;;6.47;;
23952;SDS011;12163;49.316;6.092;2023-06-26T02:20:44;9.65;;;6.35;;
23952;SDS011;12163;49.316;6.092;2023-06-26T02:23:11;9.02;;;6.40;;
23952;SDS011;12163;49.316;6.092;2023-06-26T02:25:38;10.60;;;6.15;;
23952;SDS011;12163;49.316;6.092;2023-06-26T02:28:05;8.18;;;6.53;;
23952;SDS011;12163;49.316;6.092;2023-06-26T02:30:32;9.80;;;6.10;;
23952;SDS011;12163;49.316;6.092;2023-06-26T02:32:58;12.63;;;6.30;;
23952;SDS011;12163;49.316;6.092;2023-06-26T02:35:25;12.10;;;6.68;;
23952;SDS011;12163;49.316;6.092;2023-06-26T02:37:52;11.05;;;6.78;;
23952;SDS011;12163;49.316;6.092;2023-06-26T02:40:18;9.23;;;6.60;;
23952;SDS011;12163;49.316;6.092;2023-06-26T02:42:45;9.43;;;6.60;;
23952;SDS011;12163;49.316;6.092;2023-06-26T02:45:12;11.45;;;6.72;;
23952;SDS011;12163;49.316;6.092;2023-06-26T02:47:38;11.83;;;6.70;;
23952;SDS011;12163;49.316;6.092;2023-06-26T02:50:06;9.15;;;6.90;;
23952;SDS011;12163;49.316;6.092;2023-06-26T02:52:33;11.87;;;6.90;;
23952;SDS011;12163;49.316;6.092;2023-06-26T02:55:00;10.60;;;6.47;;
23952;SDS011;12163;49.316;6.092;2023-06-26T02:57:27;10.50;;;6.63;;
23952;SDS011;12163;49.316;6.092;2023-06-26T02:59:53;8.80;;;5.82;;
23952;SDS011;12163;49.316;6.092;2023-06-26T03:02:20;9.32;;;6.30;;
23952;SDS011;12163;49.316;6.092;2023-06-26T03:04:46;10.15;;;6.72;;
23952;SDS011;12163;49.316;6.092;2023-06-26T03:07:13;9.27;;;6.32;;
23952;SDS011;12163;49.316;6.092;2023-06-26T03:09:40;9.23;;;6.85;;
23952;SDS011;12163;49.316;6.092;2023-06-26T03:12:06;10.68;;;6.45;;
23952;SDS011;12163;49.316;6.092;2023-06-26T03:14:34;9.23;;;6.27;;
23952;SDS011;12163;49.316;6.092;2023-06-26T03:17:00;10.32;;;6.57;;
23952;SDS011;12163;49.316;6.092;2023-06-26T03:19:29;8.02;;;6.55;;
23952;SDS011;12163;49.316;6.092;2023-06-26T03:21:56;10.77;;;6.40;;
23952;SDS011;12163;49.316;6.092;2023-06-26T03:24:23;7.82;;;5.78;;
23952;SDS011;12163;49.316;6.092;2023-06-26T03:26:49;7.93;;;5.70;;
23952;SDS011;12163;49.316;6.092;2023-06-26T03:29:17;8.15;;;5.55;;
23952;SDS011;12163;49.316;6.092;2023-06-26T03:31:44;8.68;;;5.60;;
23952;SDS011;12163;49.316;6.092;2023-06-26T03:34:10;8.68;;;5.60;;
23952;SDS011;12163;49.316;6.092;2023-06-26T03:36:37;10.83;;;5.77;;
23952;SDS011;12163;49.316;6.092;2023-06-26T03:39:03;7.35;;;5.47;;
23952;SDS011;12163;49.316;6.092;2023-06-26T03:41:30;9.52;;;5.97;;
23952;SDS011;12163;49.316;6.092;2023-06-26T03:43:57;12.65;;;5.75;;
23952;SDS011;12163;49.316;6.092;2023-06-26T03:46:23;10.40;;;5.60;;
23952;SDS011;12163;49.316;6.092;2023-06-26T03:48:50;11.07;;;5.18;;
23952;SDS011;12163;49.316;6.092;2023-06-26T03:51:17;8.02;;;5.30;;
23952;SDS011;12163;49.316;6.092;2023-06-26T03:53:44;6.68;;;5.60;;
23952;SDS011;12163;49.316;6.092;2023-06-26T03:56:10;8.40;;;5.50;;
23952;SDS011;12163;49.316;6.092;2023-06-26T03:58:37;9.88;;;5.57;;
23952;SDS011;12163;49.316;6.092;2023-06-26T04:01:03;6.80;;;5.20;;
23952;SDS011;12163;49.316;6.092;2023-06-26T04:03:30;6.18;;;5.13;;
23952;SDS011;12163;49.316;6.092;2023-06-26T04:05:57;8.55;;;5.72;;
23952;SDS011;12163;49.316;6.092;2023-06-26T04:08:24;13.05;;;6.10;;
23952;SDS011;12163;49.316;6.092;2023-06-26T04:10:53;8.07;;;5.45;;
23952;SDS011;12163;49.316;6.092;2023-06-26T04:13:21;10.73;;;5.43;;
23952;SDS011;12163;49.316;6.092;2023-06-26T04:15:47;10.20;;;5.47;;
23952;SDS011;12163;49.316;6.092;2023-06-26T04:18:14;10.55;;;5.03;;
23952;SDS011;12163;49.316;6.092;2023-06-26T04:20:41;6.88;;;5.00;;
23952;SDS011;12163;49.316;6.092;2023-06-26T04:23:28;6.53;;;5.03;;
23952;SDS011;12163;49.316;6.092;2023-06-26T04:25:54;7.15;;;5.60;;
23952;SDS011;12163;49.316;6.092;2023-06-26T04:28:21;5.68;;;4.68;;
23952;SDS011;12163;49.316;6.092;2023-06-26T04:30:48;7.53;;;5.47;;
23952;SDS011;12163;49.316;6.092;2023-06-26T04:33:14;7.38;;;5.68;;
23952;SDS011;12163;49.316;6.092;2023-06-26T04:35:41;10.48;;;5.78;;
23952;SDS011;12163;49.316;6.092;2023-06-26T04:38:11;6.28;;;4.80;;
23952;SDS011;12163;49.316;6.092;2023-06-26T04:40:37;7.20;;;5.22;;
23952;SDS011;12163;49.316;6.092;2023-06-26T04:43:04;9.05;;;5.10;;
23952;SDS011;12163;49.316;6.092;2023-06-26T04:45:31;8.15;;;4.95;;
23952;SDS011;12163;49.316;6.092;2023-06-26T04:47:57;8.70;;;4.55;;
23952;SDS011;12163;49.316;6.092;2023-06-26T04:50:26;11.70;;;4.88;;
23952;SDS011;12163;49.316;6.092;2023-06-26T04:52:55;7.43;;;4.57;;
23952;SDS011;12163;49.316;6.092;2023-06-26T04:55:25;6.43;;;4.68;;
23952;SDS011;12163;49.316;6.092;2023-06-26T04:57:52;7.38;;;4.47;;
23952;SDS011;12163;49.316;6.092;2023-06-26T05:00:18;6.97;;;4.20;;
23952;SDS011;12163;49.316;6.092;2023-06-26T05:02:45;7.45;;;4.30;;
23952;SDS011;12163;49.316;6.092;2023-06-26T05:05:12;8.73;;;4.25;;
23952;SDS011;12163;49.316;6.092;2023-06-26T05:07:41;5.82;;;4.35;;
23952;SDS011;12163;49.316;6.092;2023-06-26T05:10:08;6.65;;;4.60;;
23952;SDS011;12163;49.316;6.092;2023-06-26T05:12:34;7.20;;;4.63;;
23952;SDS011;12163;49.316;6.092;2023-06-26T05:15:01;7.45;;;4.50;;
23952;SDS011;12163;49.316;6.092;2023-06-26T05:17:28;6.47;;;4.47;;
23952;SDS011;12163;49.316;6.092;2023-06-26T05:19:55;8.23;;;5.38;;
23952;SDS011;12163;49.316;6.092;2023-06-26T05:22:21;12.13;;;4.82;;
23952;SDS011;12163;49.316;6.092;2023-06-26T05:24:48;11.82;;;4.78;;
23952;SDS011;12163;49.316;6.092;2023-06-26T05:27:18;9.15;;;5.10;;
23952;SDS011;12163;49.316;6.092;2023-06-26T05:29:48;8.65;;;5.03;;
23952;SDS011;12163;49.316;6.092;2023-06-26T05:32:15;7.28;;;5.20;;
23952;SDS011;12163;49.316;6.092;2023-06-26T05:34:46;11.65;;;4.93;;
23952;SDS011;12163;49.316;6.092;2023-06-26T05:37:17;6.40;;;4.75;;
23952;SDS011;12163;49.316;6.092;2023-06-26T05:39:48;6.97;;;4.63;;
23952;SDS011;12163;49.316;6.092;2023-06-26T05:42:15;9.23;;;5.30;;
23952;SDS011;12163;49.316;6.092;2023-06-26T05:44:42;10.20;;;4.57;;
23952;SDS011;12163;49.316;6.092;2023-06-26T05:47:08;13.35;;;5.45;;
23952;SDS011;12163;49.316;6.092;2023-06-26T05:49:35;11.27;;;5.03;;
23952;SDS011;12163;49.316;6.092;2023-06-26T05:52:02;17.30;;;5.00;;
23952;SDS011;12163;49.316;6.092;2023-06-26T05:54:29;8.35;;;4.45;;
23952;SDS011;12163;49.316;6.092;2023-06-26T05:56:56;12.60;;;4.72;;
23952;SDS011;12163;49.316;6.092;2023-06-26T05:59:27;12.90;;;5.43;;
23952;SDS011;12163;49.316;6.092;2023-06-26T06:01:53;8.77;;;4.25;;
23952;SDS011;12163;49.316;6.092;2023-06-26T06:04:20;8.73;;;4.30;;
23952;SDS011;12163;49.316;6.092;2023-06-26T06:06:47;5.57;;;3.95;;
23952;SDS011;12163;49.316;6.092;2023-06-26T06:09:13;7.22;;;4.25;;
23952;SDS011;12163;49.316;6.092;2023-06-26T06:11:40;7.88;;;4.18;;
23952;SDS011;12163;49.316;6.092;2023-06-26T06:14:07;9.27;;;4.10;;
23952;SDS011;12163;49.316;6.092;2023-06-26T06:16:33;9.15;;;4.20;;
23952;SDS011;12163;49.316;6.092;2023-06-26T06:19:00;6.43;;;3.65;;
23952;SDS011;12163;49.316;6.092;2023-06-26T06:21:29;6.38;;;3.40;;
23952;SDS011;12163;49.316;6.092;2023-06-26T06:23:56;11.40;;;4.50;;
23952;SDS011;12163;49.316;6.092;2023-06-26T06:26:22;5.32;;;3.47;;
23952;SDS011;12163;49.316;6.092;2023-06-26T06:28:49;7.15;;;3.67;;
23952;SDS011;12163;49.316;6.092;2023-06-26T06:31:15;5.65;;;3.05;;
23952;SDS011;12163;49.316;6.092;2023-06-26T06:33:42;6.97;;;3.00;;
23952;SDS011;12163;49.316;6.092;2023-06-26T06:36:09;5.32;;;3.22;;
23952;SDS011;12163;49.316;6.092;2023-06-26T06:38:35;7.30;;;2.85;;
23952;SDS011;12163;49.316;6.092;2023-06-26T06:41:02;5.97;;;2.97;;
23952;SDS011;12163;49.316;6.092;2023-06-26T06:43:28;6.07;;;2.92;;
23952;SDS011;12163;49.316;6.092;2023-06-26T06:45:55;9.70;;;2.83;;
23952;SDS011;12163;49.316;6.092;2023-06-26T06:48:22;10.85;;;3.33;;
23952;SDS011;12163;49.316;6.092;2023-06-26T06:50:48;12.50;;;3.42;;
23952;SDS011;12163;49.316;6.092;2023-06-26T06:53:15;7.22;;;2.88;;
23952;SDS011;12163;49.316;6.092;2023-06-26T06:55:42;10.25;;;3.08;;
23952;SDS011;12163;49.316;6.092;2023-06-26T06:58:09;7.88;;;2.80;;
23952;SDS011;12163;49.316;6.092;2023-06-26T07:00:35;4.85;;;2.72;;
23952;SDS011;12163;49.316;6.092;2023-06-26T07:03:02;4.82;;;2.58;;
23952;SDS011;12163;49.316;6.092;2023-06-26T07:05:30;8.35;;;2.42;;
23952;SDS011;12163;49.316;6.092;2023-06-26T07:07:56;8.73;;;2.90;;
23952;SDS011;12163;49.316;6.092;2023-06-26T07:10:27;4.57;;;2.33;;
23952;SDS011;12163;49.316;6.092;2023-06-26T07:12:53;6.82;;;2.70;;
23952;SDS011;12163;49.316;6.092;2023-06-26T07:15:20;4.90;;;2.72;;
23952;SDS011;12163;49.316;6.092;2023-06-26T07:17:47;12.50;;;2.67;;
23952;SDS011;12163;49.316;6.092;2023-06-26T07:20:13;7.93;;;2.83;;
23952;SDS011;12163;49.316;6.092;2023-06-26T07:22:43;8.32;;;2.88;;
23952;SDS011;12163;49.316;6.092;2023-06-26T07:25:11;5.88;;;2.90;;
23952;SDS011;12163;49.316;6.092;2023-06-26T07:27:38;10.88;;;2.95;;
23952;SDS011;12163;49.316;6.092;2023-06-26T07:30:05;6.00;;;2.65;;
23952;SDS011;12163;49.316;6.092;2023-06-26T07:32:32;8.18;;;2.58;;
23952;SDS011;12163;49.316;6.092;2023-06-26T07:34:59;5.57;;;2.47;;
23952;SDS011;12163;49.316;6.092;2023-06-26T07:37:25;8.15;;;2.90;;
23952;SDS011;12163;49.316;6.092;2023-06-26T07:39:52;5.60;;;2.58;;
23952;SDS011;12163;49.316;6.092;2023-06-26T07:42:19;4.82;;;2.60;;
23952;SDS011;12163;49.316;6.092;2023-06-26T07:44:45;10.18;;;2.75;;
23952;SDS011;12163;49.316;6.092;2023-06-26T07:47:12;12.45;;;3.05;;
23952;SDS011;12163;49.316;6.092;2023-06-26T07:49:39;9.60;;;3.30;;
23952;SDS011;12163;49.316;6.092;2023-06-26T07:52:07;15.50;;;3.40;;
23952;SDS011;12163;49.316;6.092;2023-06-26T07:54:36;12.20;;;3.28;;
23952;SDS011;12163;49.316;6.092;2023-06-26T07:57:04;10.68;;;3.00;;
23952;SDS011;12163;49.316;6.092;2023-06-26T07:59:35;12.05;;;2.80;;
23952;SDS011;12163;49.316;6.092;2023-06-26T08:02:01;10.77;;;3.30;;
23952;SDS011;12163;49.316;6.092;2023-06-26T08:04:29;8.43;;;2.72;;
23952;SDS011;12163;49.316;6.092;2023-06-26T08:06:59;9.77;;;2.78;;
23952;SDS011;12163;49.316;6.092;2023-06-26T08:09:27;6.65;;;2.85;;
23952;SDS011;12163;49.316;6.092;2023-06-26T08:11:56;9.75;;;2.70;;
23952;SDS011;12163;49.316;6.092;2023-06-26T08:14:23;6.75;;;2.72;;
23952;SDS011;12163;49.316;6.092;2023-06-26T08:16:50;8.95;;;2.70;;
23952;SDS011;12163;49.316;6.092;2023-06-26T08:19:17;7.53;;;2.80;;
23952;SDS011;12163;49.316;6.092;2023-06-26T08:21:44;14.00;;;3.03;;
23952;SDS011;12163;49.316;6.092;2023-06-26T08:24:12;7.45;;;2.67;;
23952;SDS011;12163;49.316;6.092;2023-06-26T08:26:39;8.70;;;2.90;;
23952;SDS011;12163;49.316;6.092;2023-06-26T08:29:06;8.82;;;3.20;;
23952;SDS011;12163;49.316;6.092;2023-06-26T08:34:05;11.50;;;2.65;;
23952;SDS011;12163;49.316;6.092;2023-06-26T08:36:32;13.48;;;3.17;;
23952;SDS011;12163;49.316;6.092;2023-06-26T08:38:59;7.20;;;2.63;;
23952;SDS011;12163;49.316;6.092;2023-06-26T08:41:25;8.15;;;2.80;;
23952;SDS011;12163;49.316;6.092;2023-06-26T08:43:52;5.85;;;2.58;;
23952;SDS011;12163;49.316;6.092;2023-06-26T08:46:19;9.00;;;2.75;;
23952;SDS011;12163;49.316;6.092;2023-06-26T08:48:55;12.93;;;2.97;;
23952;SDS011;12163;49.316;6.092;2023-06-26T08:51:24;15.98;;;2.35;;
23952;SDS011;12163;49.316;6.092;2023-06-26T08:53:56;5.63;;;2.10;;
23952;SDS011;12163;49.316;6.092;2023-06-26T08:56:25;8.23;;;2.20;;
23952;SDS011;12163;49.316;6.092;2023-06-26T08:58:55;9.43;;;2.20;;
23952;SDS011;12163;49.316;6.092;2023-06-26T09:01:22;7.32;;;2.28;;
23952;SDS011;12163;49.316;6.092;2023-06-26T09:03:50;7.70;;;2.60;;
23952;SDS011;12163;49.316;6.092;2023-06-26T09:06:18;6.00;;;2.40;;
23952;SDS011;12163;49.316;6.092;2023-06-26T09:08:44;12.15;;;2.78;;
23952;SDS011;12163;49.316;6.092;2023-06-26T09:11:11;5.97;;;2.10;;
23952;SDS011;12163;49.316;6.092;2023-06-26T09:13:38;6.63;;;2.15;;
23952;SDS011;12163;49.316;6.092;2023-06-26T09:16:06;4.80;;;1.90;;
23952;SDS011;12163;49.316;6.092;2023-06-26T09:18:34;8.25;;;2.40;;
23952;SDS011;12163;49.316;6.092;2023-06-26T09:21:08;7.57;;;2.00;;
23952;SDS011;12163;49.316;6.092;2023-06-26T09:23:35;6.70;;;2.05;;
23952;SDS011;12163;49.316;6.092;2023-06-26T09:26:03;7.72;;;2.15;;
23952;SDS011;12163;49.316;6.092;2023-06-26T09:28:31;10.50;;;2.40;;
23952;SDS011;12163;49.316;6.092;2023-06-26T09:31:02;5.88;;;2.17;;
23952;SDS011;12163;49.316;6.092;2023-06-26T09:33:34;9.35;;;2.65;;
23952;SDS011;12163;49.316;6.092;2023-06-26T09:36:05;10.30;;;2.10;;
23952;SDS011;12163;49.316;6.092;2023-06-26T09:38:33;11.48;;;2.00;;
23952;SDS011;12163;49.316;6.092;2023-06-26T09:41:02;9.88;;;2.45;;
23952;SDS011;12163;49.316;6.092;2023-06-26T09:43:31;7.82;;;2.05;;
23952;SDS011;12163;49.316;6.092;2023-06-26T09:45:58;8.68;;;3.03;;
23952;SDS011;12163;49.316;6.092;2023-06-26T09:48:27;6.32;;;2.20;;
23952;SDS011;12163;49.316;6.092;2023-06-26T09:50:55;5.95;;;2.38;;
23952;SDS011;12163;49.316;6.092;2023-06-26T09:53:38;5.97;;;2.10;;
23952;SDS011;12163;49.316;6.092;2023-06-26T09:56:11;7.97;;;2.10;;
23952;SDS011;12163;49.316;6.092;2023-06-26T09:58:43;10.52;;;2.40;;
23952;SDS011;12163;49.316;6.092;2023-06-26T10:01:10;6.82;;;2.13;;
23952;SDS011;12163;49.316;6.092;2023-06-26T10:03:37;8.13;;;1.83;;
23952;SDS011;12163;49.316;6.092;2023-06-26T10:06:04;7.63;;;1.92;;
23952;SDS011;12163;49.316;6.092;2023-06-26T10:08:32;10.77;;;2.50;;
23952;SDS011;12163;49.316;6.092;2023-06-26T10:11:00;9.85;;;2.60;;
23952;SDS011;12163;49.316;6.092;2023-06-26T10:13:28;17.58;;;2.40;;
23952;SDS011;12163;49.316;6.092;2023-06-26T10:15:58;6.55;;;1.90;;
23952;SDS011;12163;49.316;6.092;2023-06-26T10:18:27;6.50;;;2.17;;
23952;SDS011;12163;49.316;6.092;2023-06-26T10:20:55;7.50;;;1.90;;
23952;SDS011;12163;49.316;6.092;2023-06-26T10:23:23;5.55;;;1.70;;
23952;SDS011;12163;49.316;6.092;2023-06-26T10:25:54;11.25;;;1.85;;
23952;SDS011;12163;49.316;6.092;2023-06-26T10:28:26;5.90;;;1.88;;
23952;SDS011;12163;49.316;6.092;2023-06-26T10:30:56;7.20;;;1.75;;
23952;SDS011;12163;49.316;6.092;2023-06-26T10:33:25;9.57;;;1.80;;
23952;SDS011;12163;49.316;6.092;2023-06-26T10:35:52;5.20;;;1.52;;
23952;SDS011;12163;49.316;6.092;2023-06-26T10:38:18;3.75;;;1.60;;
23952;SDS011;12163;49.316;6.092;2023-06-26T10:40:46;3.95;;;1.45;;
23952;SDS011;12163;49.316;6.092;2023-06-26T10:43:15;6.55;;;1.50;;
23952;SDS011;12163;49.316;6.092;2023-06-26T10:45:43;7.50;;;1.50;;
23952;SDS011;12163;49.316;6.092;2023-06-26T10:48:22;5.32;;;1.67;;
23952;SDS011;12163;49.316;6.092;2023-06-26T10:50:49;6.15;;;1.67;;
23952;SDS011;12163;49.316;6.092;2023-06-26T11:03:39;5.90;;;1.40;;
23952;SDS011;12163;49.316;6.092;2023-06-26T11:06:28;8.18;;;1.73;;
23952;SDS011;12163;49.316;6.092;2023-06-26T11:14:35;5.70;;;1.48;;
23952;SDS011;12163;49.316;6.092;2023-06-26T11:17:02;5.50;;;1.40;;
23952;SDS011;12163;49.316;6.092;2023-06-26T11:19:30;7.07;;;1.50;;
23952;SDS011;12163;49.316;6.092;2023-06-26T11:22:07;4.32;;;1.30;;
23952;SDS011;12163;49.316;6.092;2023-06-26T11:24:33;6.28;;;1.23;;
23952;SDS011;12163;49.316;6.092;2023-06-26T11:27:01;5.88;;;1.42;;
23952;SDS011;12163;49.316;6.092;2023-06-26T11:29:29;5.75;;;1.42;;
23952;SDS011;12163;49.316;6.092;2023-06-26T11:31:59;5.80;;;1.33;;
23952;SDS011;12163;49.316;6.092;2023-06-26T11:34:30;4.25;;;1.23;;
23952;SDS011;12163;49.316;6.092;2023-06-26T11:36:58;2.72;;;1.13;;
23952;SDS011;12163;49.316;6.092;2023-06-26T11:39:27;3.83;;;1.33;;
23952;SDS011;12163;49.316;6.092;2023-06-26T11:41:54;6.03;;;1.50;;
23952;SDS011;12163;49.316;6.092;2023-06-26T11:44:20;5.13;;;1.20;;
23952;SDS011;12163;49.316;6.092;2023-06-26T11:46:47;3.33;;;1.35;;
23952;SDS011;12163;49.316;6.092;2023-06-26T11:49:18;5.53;;;1.13;;
23952;SDS011;12163;49.316;6.092;2023-06-26T11:51:45;4.50;;;1.63;;
23952;SDS011;12163;49.316;6.092;2023-06-26T11:54:12;3.67;;;1.23;;
23952;SDS011;12163;49.316;6.092;2023-06-26T11:56:40;7.65;;;1.50;;
23952;SDS011;12163;49.316;6.092;2023-06-26T11:59:08;4.20;;;1.40;;
23952;SDS011;12163;49.316;6.092;2023-06-26T12:01:41;7.75;;;1.50;;
23952;SDS011;12163;49.316;6.092;2023-06-26T12:04:14;4.03;;;1.40;;
23952;SDS011;12163;49.316;6.092;2023-06-26T12:06:45;3.22;;;1.30;;
23952;SDS011;12163;49.316;6.092;2023-06-26T12:11:43;11.40;;;2.00;;
23952;SDS011;12163;49.316;6.092;2023-06-26T12:14:11;5.22;;;1.30;;
23952;SDS011;12163;49.316;6.092;2023-06-26T12:16:39;8.80;;;1.70;;
23952;SDS011;12163;49.316;6.092;2023-06-26T12:19:07;4.15;;;1.40;;
23952;SDS011;12163;49.316;6.092;2023-06-26T12:24:04;4.80;;;1.90;;
23952;SDS011;12163;49.316;6.092;2023-06-26T12:26:32;7.97;;;1.60;;
23952;SDS011;12163;49.316;6.092;2023-06-26T12:29:06;5.82;;;1.65;;
23952;SDS011;12163;49.316;6.092;2023-06-26T12:31:34;8.20;;;1.90;;
23952;SDS011;12163;49.316;6.092;2023-06-26T12:34:08;4.57;;;1.55;;
23952;SDS011;12163;49.316;6.092;2023-06-26T12:36:40;13.30;;;2.40;;
23952;SDS011;12163;49.316;6.092;2023-06-26T12:39:11;9.05;;;1.90;;
23952;SDS011;12163;49.316;6.092;2023-06-26T12:41:57;3.30;;;1.30;;
23952;SDS011;12163;49.316;6.092;2023-06-26T12:44:30;10.48;;;1.75;;
23952;SDS011;12163;49.316;6.092;2023-06-26T12:47:02;6.15;;;1.70;;
23952;SDS011;12163;49.316;6.092;2023-06-26T12:49:36;6.72;;;1.65;;
23952;SDS011;12163;49.316;6.092;2023-06-26T12:52:05;5.03;;;1.50;;
23952;SDS011;12163;49.316;6.092;2023-06-26T12:54:33;5.72;;;1.50;;
23952;SDS011;12163;49.316;6.092;2023-06-26T12:57:01;6.88;;;1.50;;
23952;SDS011;12163;49.316;6.092;2023-06-26T12:59:27;5.35;;;1.48;;
23952;SDS011;12163;49.316;6.092;2023-06-26T13:01:54;4.18;;;1.83;;
23952;SDS011;12163;49.316;6.092;2023-06-26T13:04:21;4.30;;;1.70;;
23952;SDS011;12163;49.316;6.092;2023-06-26T13:06:47;6.90;;;1.98;;
23952;SDS011;12163;49.316;6.092;2023-06-26T13:09:14;6.28;;;1.92;;
23952;SDS011;12163;49.316;6.092;2023-06-26T13:11:41;4.82;;;1.67;;
23952;SDS011;12163;49.316;6.092;2023-06-26T13:14:07;7.32;;;1.60;;
23952;SDS011;12163;49.316;6.092;2023-06-26T13:16:37;6.13;;;1.90;;
23952;SDS011;12163;49.316;6.092;2023-06-26T13:19:04;5.53;;;1.77;;
23952;SDS011;12163;49.316;6.092;2023-06-26T13:21:31;10.13;;;1.75;;
23952;SDS011;12163;49.316;6.092;2023-06-26T13:23:58;12.02;;;1.50;;
23952;SDS011;12163;49.316;6.092;2023-06-26T13:26:25;10.05;;;2.00;;
23952;SDS011;12163;49.316;6.092;2023-06-26T13:29:03;11.43;;;1.88;;
23952;SDS011;12163;49.316;6.092;2023-06-26T13:31:30;7.25;;;1.95;;
23952;SDS011;12163;49.316;6.092;2023-06-26T13:33:57;9.18;;;1.55;;
23952;SDS011;12163;49.316;6.092;2023-06-26T13:36:25;4.10;;;1.60;;
23952;SDS011;12163;49.316;6.092;2023-06-26T13:38:52;9.75;;;1.70;;
23952;SDS011;12163;49.316;6.092;2023-06-26T13:41:22;6.95;;;1.65;;
23952;SDS011;12163;49.316;6.092;2023-06-26T13:43:50;3.97;;;1.50;;
23952;SDS011;12163;49.316;6.092;2023-06-26T13:46:18;7.28;;;1.75;;
23952;SDS011;12163;49.316;6.092;2023-06-26T13:48:45;5.45;;;1.98;;
23952;SDS011;12163;49.316;6.092;2023-06-26T13:51:12;4.25;;;1.40;;
23952;SDS011;12163;49.316;6.092;2023-06-26T13:53:39;8.70;;;2.00;;
23952;SDS011;12163;49.316;6.092;2023-06-26T13:56:06;10.13;;;2.40;;
23952;SDS011;12163;49.316;6.092;2023-06-26T13:58:34;10.55;;;2.35;;
23952;SDS011;12163;49.316;6.092;2023-06-26T14:01:03;6.65;;;1.80;;
23952;SDS011;12163;49.316;6.092;2023-06-26T14:03:30;5.63;;;1.60;;
23952;SDS011;12163;49.316;6.092;2023-06-26T14:05:58;6.38;;;1.80;;
23952;SDS011;12163;49.316;6.092;2023-06-26T14:08:24;6.25;;;1.88;;
23952;SDS011;12163;49.316;6.092;2023-06-26T14:10:51;7.70;;;1.70;;
23952;SDS011;12163;49.316;6.092;2023-06-26T14:13:18;11.13;;;2.00;;
23952;SDS011;12163;49.316;6.092;2023-06-26T14:15:48;8.63;;;1.88;;
23952;SDS011;12163;49.316;6.092;2023-06-26T14:18:19;8.27;;;2.00;;
23952;SDS011;12163;49.316;6.092;2023-06-26T14:20:47;5.18;;;1.88;;
23952;SDS011;12163;49.316;6.092;2023-06-26T14:23:14;11.80;;;2.05;;
23952;SDS011;12163;49.316;6.092;2023-06-26T14:25:41;7.00;;;1.85;;
23952;SDS011;12163;49.316;6.092;2023-06-26T14:28:07;7.72;;;1.90;;
23952;SDS011;12163;49.316;6.092;2023-06-26T14:30:34;7.88;;;1.70;;
23952;SDS011;12163;49.316;6.092;2023-06-26T14:33:01;7.13;;;1.77;;
23952;SDS011;12163;49.316;6.092;2023-06-26T14:35:28;8.40;;;2.35;;
23952;SDS011;12163;49.316;6.092;2023-06-26T14:37:54;4.40;;;1.80;;
23952;SDS011;12163;49.316;6.092;2023-06-26T14:40:21;5.82;;;1.80;;
23952;SDS011;12163;49.316;6.092;2023-06-26T14:42:48;7.32;;;2.00;;
23952;SDS011;12163;49.316;6.092;2023-06-26T14:45:15;9.75;;;1.80;;
23952;SDS011;12163;49.316;6.092;2023-06-26T14:47:42;12.30;;;2.25;;
23952;SDS011;12163;49.316;6.092;2023-06-26T14:50:09;4.93;;;1.75;;
23952;SDS011;12163;49.316;6.092;2023-06-26T14:52:36;4.10;;;1.75;;
23952;SDS011;12163;49.316;6.092;2023-06-26T14:55:02;6.50;;;2.05;;
23952;SDS011;12163;49.316;6.092;2023-06-26T14:57:33;16.02;;;2.20;;
23952;SDS011;12163;49.316;6.092;2023-06-26T15:00:00;5.75;;;1.77;;
23952;SDS011;12163;49.316;6.092;2023-06-26T15:02:26;9.57;;;2.42;;
23952;SDS011;12163;49.316;6.092;2023-06-26T15:04:53;6.10;;;2.00;;
23952;SDS011;12163;49.316;6.092;2023-06-26T15:07:20;6.25;;;2.15;;
23952;SDS011;12163;49.316;6.092;2023-06-26T15:09:47;4.05;;;1.85;;
23952;SDS011;12163;49.316;6.092;2023-06-26T15:12:13;5.85;;;1.70;;
23952;SDS011;12163;49.316;6.092;2023-06-26T15:14:40;6.90;;;2.10;;
23952;SDS011;12163;49.316;6.092;2023-06-26T15:17:07;6.53;;;1.80;;